Hlavní strana
METAR-TAF:

METAR-TAF

Letiště :

Kassel, Německo

zeměpisná šířka: 51-24N, zeměpisná délka: 009-23E, výška: 277 m

Aktuální stav počasí

Zpráva byla vytvořena před 16 minutami, v 17:50 UTC
Jihojihozápadní vítr 3 kt
Teplota -2°C
Vlhkost vzduchu 80%
Tlak 1019 hPa
Viditelnost 10 km a více
Žádná oblačnost pod 1500 m, nevyskytují se cumulonimby.

METAR: EDVK 181750Z 21003KT CAVOK M02/M05 Q1019

Čas: 19:06 (18:06 UTC)

Předpověď počasí

Zpráva byla vytvořena před 1 hodinou a 6 minutami, v 17:00 UTC
Předpověď platná od 18 v 18 UTC do 19 v 03 UTC
vítr z různých směrů 3 kt
Viditelnost 10 km a více
Žádná oblačnost pod 1500 m, nevyskytují se cumulonimby.

TAF: EDVK 181700Z 1818/1903 VRB03KT CAVOK

Stav a předpovědi počasí z více než 4 000 letišť (zprávy METAR a TAF).

Červené a žluté tečky na mapě představují dostupné meteorologické stanice.

Když kurzor umístíte na tečku, zobrazí se název stanice.

Pak kliknutím zobrazíte stav a předpověď počasí.

Chcete-li změnit mapu, kliknutím na zelené tlačítko se znaménkem +mapu přiblížíte, kliknutím na zelené tlačítko se znaménkem – mapu oddálíte a kliknutím na zelené šipky přejdete na sousední mapy.


METAR-TAF: